< Typhoon 197821 1978 Season Typhoon 197823 >
Typhoon 197822 (MAMIE)
General InformationDetailed Track InformationTrack Information on Google Maps || Disaster Info.ResourceGoogle EarthGE AnimationAtom FeedGeoJSON
Detalied Best Track Wind (Time Zone = UTC)
Year Month Day Hour Lat. Long. Wind (kt) Gust (kt) Direc. of Major Storm Axis Radius of Major Storm Axis (nm) Radius of Minor Storm Axis (nm) Direc. of Major Gale Axis Radius of Major Gale Axis (nm) Radius of Minor Gale Axis (nm) Image
1978 9 30 00 19.1 152.5 0 0 - - - - - - --
1978 9 30 06 19.3 152.1 0 0 - - - - - - --
1978 9 30 12 20.0 152.9 35 0 - - - symmetric 100 100 --
1978 9 30 18 20.7 153.2 40 0 - - - symmetric 100 100 --
1978 10 1 00 21.5 153.0 40 0 - - - symmetric 100 100 --
1978 10 1 06 22.4 152.2 40 0 - - - symmetric 100 100 --
1978 10 1 12 23.3 151.3 40 0 - - - symmetric 100 100 --
1978 10 1 18 24.2 150.6 45 0 - - - symmetric 150 150 --
1978 10 2 00 24.9 150.2 50 0 - - - symmetric 150 150 --
1978 10 2 06 25.7 150.0 50 0 - - - symmetric 150 150 --
1978 10 2 12 26.7 150.0 50 0 - - - symmetric 150 150 --
1978 10 2 18 27.8 150.3 55 0 symmetric 50 50 symmetric 150 150 --
1978 10 3 00 29.0 150.9 60 0 symmetric 50 50 symmetric 150 150 --
1978 10 3 06 30.3 151.8 70 0 symmetric 75 75 symmetric 200 200 --
1978 10 3 12 32.2 152.9 65 0 symmetric 75 75 symmetric 200 200 --
1978 10 3 18 34.7 155.0 65 0 symmetric 75 75 symmetric 200 200 --
1978 10 4 00 37.0 157.6 60 0 symmetric 60 60 E 250 200 --
1978 10 4 06 38.8 160.6 55 0 symmetric 50 50 E 250 200 --
1978 10 4 12 40.6 163.6 45 0 - - - E 250 200 --
1978 10 4 18 42.0 167.1 40 0 - - - E 250 200 --
1978 10 5 00 43.0 171.0 40 0 - - - E 250 200 --
1978 10 5 06 43.0 175.0 45 0 - - - symmetric 400 400 --
1978 10 5 12 43.0 180.0 0 0 - - - - - - --
Japan Meteorological Agency Best Track Data | Correction Date : 1992-10-21
< Typhoon 197821 1978 Season Typhoon 197823 >

Help